Weather at Logan International Airport

Public forecast

Using degrees Fahrenheit for public forecast. Weather courtesy of forecast.io.

Current aviation weather report (METAR) for Logan International Airport

2024/05/20 01:54 (retrieved 39 minutes ago)

KBOS 200154Z 05005KT 10SM BKN012 BKN040 11/10 A3008 RMK AO2 SLP185 T01110100

Closest aviation forecast (TAF) to Logan International Airport

Forecast is more than 6 hours old.

Closest forecast is Kingston Norman Rogers Airport, 268.6 nm (497.4 km) WNW.

2024/05/19 20:00 (retrieved 7 hours ago)

TAF CYGK 191940Z 1920/2003 20005KT P6SM FEW025 RMK NXT FCST BY 201200Z